Search for airport 
image banner adimage banner adimage banner ad
image banner ad

KTCY - Tracy Muni

Located in Tracy, United States

ICAO - TCY, IATA -

Data provided by Airmate  

General information

Coordinates: N37°41'20" W121°26'30"
Elevation is 193 feet MSL.
Magnetic variation is 15° East
View others Airports in California

Operational data

Special qualification required
Current time UTC:
Current local time:
Weather
METAR: KTCY 212255Z AUTO VRB04KT 10SM CLR 34/09 A3002 RMK A01
View NOTAMs / SUP AIP / TFR affecting this airport [VIEW]
Communications frequencies: [VIEW]

Runways:

RWY identifierQFULength (ft)Width (ft)SurfaceLDA (ft)
12132°400175ASPH
30312°400175ASPH
0890°343875ASPH
26270°343875ASPH

Airport contact information

Address: Tracy United States

Other aviation service providers

Flight schools

Skyview Aviation, Llc

Skyview Aviation, Llc

Satellite view of KTCY